Time;durP1;ratioP1;P1;durP2;ratioP2;P2;SDS_P1;SDS_P2;PMS_P1;PMS_P2;Temp;Humidity;BMP_temperature;BMP_pressure;BME280_temperature;BME280_humidity;BME280_pressure;Samples;Min_cycle;Max_cycle;Signal;HPM_P1;HPM_P2
2022/05/12 00:02:20;;;;;;;7.53;5.55;;;18.00;71.80;;;;;;5160898;28;20046;-75
2022/05/12 00:04:54;;;;;;;10.77;6.03;;;18.00;71.70;;;;;;5156302;28;20064;-74
2022/05/12 00:07:27;;;;;;;9.13;5.60;;;18.10;71.50;;;;;;5128273;28;21264;-74
2022/05/12 00:10:00;;;;;;;8.95;6.32;;;18.00;71.60;;;;;;5147189;28;20161;-75
2022/05/12 00:12:32;;;;;;;7.47;5.90;;;18.00;71.80;;;;;;5152063;28;20037;-75
2022/05/12 00:15:08;;;;;;;6.75;5.63;;;18.00;71.90;;;;;;5150835;28;20058;-75
2022/05/12 00:17:44;;;;;;;7.40;5.88;;;18.00;72.00;;;;;;5130160;28;20051;-75
2022/05/12 00:20:18;;;;;;;8.88;6.25;;;17.90;71.70;;;;;;5146833;28;20498;-75
2022/05/12 00:22:51;;;;;;;9.77;6.65;;;17.90;71.70;;;;;;5164513;28;20050;-76
2022/05/12 00:25:24;;;;;;;9.35;6.85;;;17.90;71.90;;;;;;5159150;28;20046;-75
2022/05/12 00:27:56;;;;;;;7.68;6.43;;;17.90;71.70;;;;;;5162591;28;20517;-75
2022/05/12 00:30:29;;;;;;;11.43;7.00;;;17.90;71.90;;;;;;5152190;28;20054;-75
2022/05/12 00:33:02;;;;;;;10.73;6.65;;;17.80;72.10;;;;;;5146425;28;20064;-75
2022/05/12 00:35:35;;;;;;;8.57;6.80;;;17.80;72.10;;;;;;5127364;28;20053;-75
2022/05/12 00:38:09;;;;;;;10.70;6.13;;;17.80;72.20;;;;;;5159766;28;20058;-76
2022/05/12 00:40:44;;;;;;;7.53;5.78;;;17.80;72.40;;;;;;5164492;28;20549;-75
2022/05/12 00:43:44;;;;;;;8.75;6.47;;;17.80;72.50;;;;;;5164710;28;20042;-75
2022/05/12 00:46:20;;;;;;;8.80;6.93;;;17.70;73.30;;;;;;5160853;28;20053;-75
2022/05/12 00:48:57;;;;;;;8.40;7.28;;;17.80;72.60;;;;;;5138722;28;20046;-75
2022/05/12 00:51:38;;;;;;;7.90;6.20;;;17.80;73.00;;;;;;5137374;28;20049;-75
2022/05/12 00:54:29;;;;;;;10.60;6.20;;;17.70;73.30;;;;;;5158659;28;20049;-75
2022/05/12 00:57:04;;;;;;;9.98;6.22;;;17.70;73.60;;;;;;5160984;28;20047;-74
2022/05/12 00:59:37;;;;;;;17.38;7.68;;;17.70;73.10;;;;;;5165185;28;20053;-75
2022/05/12 01:02:14;;;;;;;13.03;7.17;;;17.70;73.20;;;;;;5156456;28;20514;-75
2022/05/12 01:04:48;;;;;;;9.80;6.38;;;17.60;73.30;;;;;;5152771;28;20049;-74
2022/05/12 01:07:21;;;;;;;12.77;6.32;;;17.70;73.40;;;;;;5157044;28;20046;-75
2022/05/12 01:09:54;;;;;;;11.35;6.45;;;17.60;73.40;;;;;;5147376;28;20406;-75
2022/05/12 01:12:26;;;;;;;10.48;6.90;;;17.60;73.80;;;;;;5144440;28;20053;-76
2022/05/12 01:14:59;;;;;;;7.95;6.75;;;17.60;73.80;;;;;;5156334;28;20569;-75
2022/05/12 01:17:31;;;;;;;10.43;6.88;;;17.60;73.70;;;;;;5148336;28;20050;-75
2022/05/12 01:20:05;;;;;;;8.00;6.83;;;17.50;74.00;;;;;;5151275;28;20482;-74
2022/05/12 01:22:50;;;;;;;8.32;6.82;;;17.50;74.10;;;;;;5157964;28;20042;-75
2022/05/12 01:25:25;;;;;;;12.45;7.18;;;17.50;74.40;;;;;;5157982;28;20617;-75
2022/05/12 01:27:58;;;;;;;10.27;7.00;;;17.50;74.20;;;;;;5153361;28;20363;-75
2022/05/12 01:30:30;;;;;;;9.00;6.95;;;17.50;74.30;;;;;;5168874;28;20710;-74
2022/05/12 01:33:04;;;;;;;7.68;6.57;;;17.50;74.40;;;;;;5159282;28;20414;-75
2022/05/12 01:35:37;;;;;;;9.45;6.90;;;17.50;74.30;;;;;;5157859;28;20053;-74
2022/05/12 01:38:10;;;;;;;10.65;7.10;;;17.50;74.40;;;;;;5168131;28;20046;-74
2022/05/12 01:40:44;;;;;;;9.32;6.28;;;17.50;74.20;;;;;;5163594;28;20061;-74
2022/05/12 01:43:17;;;;;;;11.02;7.35;;;17.40;74.30;;;;;;5155376;28;20042;-74
2022/05/12 01:45:49;;;;;;;9.83;7.13;;;17.40;74.50;;;;;;5167882;28;20065;-75
2022/05/12 01:48:22;;;;;;;13.80;6.70;;;17.40;74.50;;;;;;5156824;28;21216;-74
2022/05/12 01:50:55;;;;;;;7.55;5.78;;;17.40;74.40;;;;;;5159227;28;20823;-75
2022/05/12 01:53:30;;;;;;;7.27;6.37;;;17.40;74.50;;;;;;5162463;28;20050;-76
2022/05/12 01:56:05;;;;;;;10.57;6.18;;;17.40;74.50;;;;;;5155943;28;20074;-75
2022/05/12 01:58:38;;;;;;;9.75;6.47;;;17.40;74.50;;;;;;5154925;28;20058;-75
2022/05/12 02:01:11;;;;;;;14.40;6.15;;;17.50;75.30;;;;;;5157819;28;21314;-75
2022/05/12 02:03:46;;;;;;;12.38;6.57;;;17.50;74.60;;;;;;5158395;28;20069;-75
2022/05/12 02:06:18;;;;;;;10.07;6.18;;;17.50;74.60;;;;;;5160010;28;20046;-75
2022/05/12 02:08:50;;;;;;;14.38;6.65;;;17.50;74.70;;;;;;5157569;28;20867;-75
2022/05/12 02:11:23;;;;;;;8.07;5.88;;;17.50;74.60;;;;;;5159023;28;20053;-74
2022/05/12 02:13:56;;;;;;;9.97;6.37;;;17.50;74.70;;;;;;5154134;28;20057;-74
2022/05/12 02:16:30;;;;;;;7.53;6.03;;;17.50;74.60;;;;;;5141486;28;20718;-75
2022/05/12 02:19:05;;;;;;;7.90;6.05;;;17.50;74.60;;;;;;5156345;28;20042;-75
2022/05/12 02:21:38;;;;;;;11.82;6.70;;;17.50;74.80;;;;;;5167797;28;20048;-74
2022/05/12 02:24:10;;;;;;;10.93;6.40;;;17.50;74.70;;;;;;5149840;28;20042;-75
2022/05/12 02:26:43;;;;;;;10.90;6.82;;;17.50;74.80;;;;;;5165468;28;20041;-75
2022/05/12 02:29:15;;;;;;;9.30;6.10;;;17.50;74.60;;;;;;5160235;28;20953;-75
2022/05/12 02:31:48;;;;;;;10.63;6.00;;;17.60;74.60;;;;;;5156817;28;20061;-76
2022/05/12 02:34:20;;;;;;;10.43;5.97;;;17.60;74.50;;;;;;5155494;28;20065;-75
2022/05/12 02:37:01;;;;;;;8.40;6.22;;;17.60;74.20;;;;;;5160717;28;20058;-75
2022/05/12 02:39:37;;;;;;;13.02;6.22;;;17.60;73.90;;;;;;5142635;28;20061;-75
2022/05/12 02:42:10;;;;;;;11.75;6.10;;;17.70;73.60;;;;;;5163602;28;20126;-75
2022/05/12 02:44:43;;;;;;;8.13;5.30;;;17.70;73.40;;;;;;5146426;28;20049;-76
2022/05/12 02:47:15;;;;;;;8.07;5.30;;;17.80;73.30;;;;;;5162952;28;20301;-76
2022/05/12 02:49:48;;;;;;;9.63;5.57;;;17.80;73.20;;;;;;5147210;28;20046;-76
2022/05/12 02:52:20;;;;;;;8.05;6.03;;;17.80;73.10;;;;;;5145138;28;20065;-76
2022/05/12 02:54:53;;;;;;;11.45;6.28;;;17.80;73.00;;;;;;5157845;28;20054;-76
2022/05/12 02:57:25;;;;;;;9.65;5.75;;;17.90;73.00;;;;;;5153512;28;20526;-76
2022/05/12 02:59:58;;;;;;;6.93;4.88;;;17.90;73.00;;;;;;5156117;28;20080;-76
2022/05/12 03:02:30;;;;;;;7.72;5.78;;;17.90;72.90;;;;;;5149795;28;20052;-76
2022/05/12 03:05:03;;;;;;;10.35;5.97;;;17.90;72.80;;;;;;5169973;28;20056;-75
2022/05/12 03:07:35;;;;;;;8.53;6.03;;;18.00;72.70;;;;;;5152978;28;20066;-75
2022/05/12 03:10:10;;;;;;;8.07;5.47;;;18.00;72.60;;;;;;5155975;28;21031;-75
2022/05/12 03:12:42;;;;;;;8.40;6.40;;;18.00;72.50;;;;;;5158153;28;20065;-76
2022/05/12 03:15:14;;;;;;;9.35;5.80;;;18.10;72.40;;;;;;5157097;28;20049;-74
2022/05/12 03:17:47;;;;;;;9.05;5.75;;;18.00;72.40;;;;;;5151829;28;20061;-76
2022/05/12 03:20:22;;;;;;;8.90;6.28;;;18.00;72.50;;;;;;5160481;28;20521;-76
2022/05/12 03:22:55;;;;;;;10.48;5.53;;;18.00;72.60;;;;;;5134707;28;20925;-75
2022/05/12 03:25:28;;;;;;;12.13;6.13;;;18.00;72.60;;;;;;5157621;28;20482;-75
2022/05/12 03:28:00;;;;;;;7.20;6.07;;;18.00;72.50;;;;;;5154095;28;20050;-76
2022/05/12 03:30:33;;;;;;;6.75;5.88;;;18.00;72.60;;;;;;5158008;28;20050;-76
2022/05/12 03:33:06;;;;;;;8.82;5.93;;;18.10;72.80;;;;;;5158226;28;20474;-76
2022/05/12 03:35:39;;;;;;;7.97;5.50;;;18.00;72.70;;;;;;5151089;28;20054;-75
2022/05/12 03:38:11;;;;;;;9.85;6.57;;;18.00;72.70;;;;;;5158611;28;20046;-76
2022/05/12 03:40:44;;;;;;;10.63;6.07;;;18.00;72.80;;;;;;5146537;28;20042;-75
2022/05/12 03:46:09;;;;;;;11.70;5.78;;;18.00;72.80;;;;;;5137245;28;20614;-76
2022/05/12 03:48:42;;;;;;;9.85;6.45;;;18.00;72.80;;;;;;5168866;28;20042;-76
2022/05/12 03:51:14;;;;;;;6.87;5.60;;;18.00;72.90;;;;;;5148797;28;20527;-76
2022/05/12 03:53:47;;;;;;;6.90;5.68;;;18.00;72.90;;;;;;5147887;28;20065;-75
2022/05/12 03:56:21;;;;;;;9.63;5.78;;;18.10;72.90;;;;;;5154098;28;20536;-76
2022/05/12 03:58:53;;;;;;;8.70;5.45;;;18.00;72.70;;;;;;5150180;28;20915;-75
2022/05/12 04:01:25;;;;;;;8.02;5.57;;;18.10;72.80;;;;;;5152744;28;20636;-76
2022/05/12 04:03:58;;;;;;;7.30;5.20;;;18.10;73.00;;;;;;5150610;28;20121;-74
2022/05/12 04:06:31;;;;;;;9.05;5.40;;;18.10;73.30;;;;;;5145942;28;20434;-74
2022/05/12 04:09:03;;;;;;;7.70;5.23;;;18.00;73.90;;;;;;5141425;28;20046;-75
2022/05/12 04:11:36;;;;;;;10.23;6.13;;;18.00;74.10;;;;;;5146780;28;20061;-75
2022/05/12 04:14:09;;;;;;;9.27;5.60;;;18.00;73.90;;;;;;5152226;28;20081;-75
2022/05/12 04:16:41;;;;;;;7.82;5.72;;;18.00;74.00;;;;;;5151326;28;20050;-75
2022/05/12 04:19:14;;;;;;;12.00;6.27;;;18.00;73.90;;;;;;5150160;28;20053;-75
2022/05/12 04:21:47;;;;;;;12.15;6.07;;;17.90;74.10;;;;;;5124546;28;20057;-75
2022/05/12 04:24:20;;;;;;;8.75;6.57;;;17.90;74.20;;;;;;5152745;28;20057;-75
2022/05/12 04:26:53;;;;;;;7.90;6.40;;;17.90;74.50;;;;;;5148885;28;20094;-76
2022/05/12 04:29:26;;;;;;;9.00;5.97;;;17.80;74.60;;;;;;5171391;28;20546;-75
2022/05/12 04:31:58;;;;;;;6.78;5.50;;;17.80;74.90;;;;;;5144908;28;20070;-75
2022/05/12 04:37:28;;;;;;;11.65;6.22;;;17.80;74.90;;;;;;5147903;28;20042;-75
2022/05/12 04:40:11;;;;;;;9.98;6.00;;;17.80;75.10;;;;;;5146100;28;20050;-75
2022/05/12 04:42:44;;;;;;;9.07;6.40;;;17.80;75.40;;;;;;5158652;28;20057;-75
2022/05/12 04:45:19;;;;;;;7.72;6.40;;;17.90;75.30;;;;;;5152412;28;20470;-76
2022/05/12 04:47:52;;;;;;;10.93;6.30;;;17.90;75.20;;;;;;5138969;28;20053;-74
2022/05/12 04:50:28;;;;;;;7.22;6.35;;;18.00;75.10;;;;;;5144544;28;20053;-76
2022/05/12 04:53:02;;;;;;;8.65;6.00;;;18.10;74.90;;;;;;5134931;28;20050;-76
2022/05/12 04:55:35;;;;;;;9.93;5.18;;;18.20;74.70;;;;;;5136747;28;20053;-74
2022/05/12 04:58:08;;;;;;;9.35;6.53;;;18.30;74.30;;;;;;5150119;28;20045;-76
2022/05/12 05:00:43;;;;;;;9.30;6.18;;;18.50;74.00;;;;;;5150363;28;20038;-76
2022/05/12 05:03:16;;;;;;;10.15;5.50;;;18.60;74.00;;;;;;5149250;28;20478;-75
2022/05/12 05:05:51;;;;;;;8.77;5.18;;;18.70;73.70;;;;;;5147239;28;20057;-75
2022/05/12 05:08:24;;;;;;;7.03;4.75;;;18.80;73.20;;;;;;5130805;28;20042;-75
2022/05/12 05:10:57;;;;;;;8.50;4.93;;;19.00;72.30;;;;;;5149815;28;20038;-75
2022/05/12 05:13:30;;;;;;;6.22;4.47;;;19.10;72.20;;;;;;5150184;28;20406;-74
2022/05/12 05:16:02;;;;;;;9.23;4.73;;;19.20;71.40;;;;;;5143542;28;20157;-74
2022/05/12 05:18:36;;;;;;;7.18;4.65;;;19.40;70.10;;;;;;5140849;28;20593;-73
2022/05/12 05:21:10;;;;;;;6.78;4.20;;;19.50;70.20;;;;;;5142148;28;20052;-74
2022/05/12 05:23:42;;;;;;;;;;;19.60;69.30;;;;;;5149568;28;20057;-75
2022/05/12 05:26:15;;;;;;;6.53;4.50;;;19.60;68.50;;;;;;5149180;28;19929;-74
2022/05/12 05:28:47;;;;;;;9.98;4.30;;;19.70;68.60;;;;;;5152056;28;20053;-74
2022/05/12 05:31:20;;;;;;;7.75;4.50;;;19.80;68.50;;;;;;5153683;28;20148;-74
2022/05/12 05:33:53;;;;;;;7.78;3.88;;;19.80;68.50;;;;;;5168709;28;20050;-76
2022/05/12 05:36:25;;;;;;;8.45;4.35;;;19.90;67.60;;;;;;5151481;28;20426;-75
2022/05/12 05:38:58;;;;;;;6.15;4.60;;;19.90;67.80;;;;;;5146537;28;22834;-75
2022/05/12 05:41:30;;;;;;;6.63;4.30;;;19.90;67.00;;;;;;5160227;28;20042;-75
2022/05/12 05:44:03;;;;;;;8.95;4.60;;;20.00;67.60;;;;;;5150613;28;20433;-75
2022/05/12 05:46:36;;;;;;;8.20;4.28;;;20.00;66.80;;;;;;5160758;28;20506;-74
2022/05/12 05:49:08;;;;;;;7.53;3.92;;;20.10;66.70;;;;;;5151147;23;20066;-67
2022/05/12 05:54:34;;;;;;;6.10;4.32;;;20.10;66.10;;;;;;5122202;28;20057;-68
2022/05/12 05:57:07;;;;;;;9.55;4.10;;;20.20;66.60;;;;;;5124287;28;20054;-67
2022/05/12 05:59:40;;;;;;;10.18;4.60;;;20.30;67.20;;;;;;5124586;28;20046;-67
2022/05/12 06:02:12;;;;;;;5.80;4.10;;;20.30;66.20;;;;;;5122871;28;20443;-66
2022/05/12 06:04:45;;;;;;;7.22;3.88;;;20.30;66.50;;;;;;5113952;28;20081;-66
2022/05/12 06:07:17;;;;;;;10.80;3.90;;;20.40;66.10;;;;;;5122826;28;20043;-67
2022/05/12 06:09:51;;;;;;;7.35;4.25;;;20.50;66.20;;;;;;5126846;28;20066;-67
2022/05/12 06:12:24;;;;;;;11.45;4.00;;;20.60;65.40;;;;;;5125291;28;20066;-68
2022/05/12 06:14:56;;;;;;;6.95;4.22;;;20.70;64.80;;;;;;5124595;28;20050;-67
2022/05/12 06:17:28;;;;;;;3.88;3.47;;;20.70;64.60;;;;;;5126021;28;20059;-67
2022/05/12 06:20:02;;;;;;;9.95;4.13;;;20.90;64.90;;;;;;5123753;28;20056;-66
2022/05/12 06:22:34;;;;;;;6.65;3.88;;;21.00;64.90;;;;;;5122904;28;20047;-67
2022/05/12 06:25:10;;;;;;;10.15;3.95;;;21.00;63.90;;;;;;5124991;28;20062;-67
2022/05/12 06:27:45;;;;;;;9.65;3.65;;;21.10;63.80;;;;;;5125875;28;20039;-66
2022/05/12 06:30:18;;;;;;;10.20;3.78;;;21.10;63.60;;;;;;5124078;28;20043;-67
2022/05/12 06:32:51;;;;;;;9.43;3.78;;;21.10;63.60;;;;;;5123840;28;20885;-67
2022/05/12 06:35:25;;;;;;;4.93;3.20;;;21.10;63.60;;;;;;5125007;28;20051;-67
2022/05/12 06:37:58;;;;;;;8.20;4.50;;;21.10;64.00;;;;;;5127640;28;20527;-67
2022/05/12 06:40:30;;;;;;;11.20;4.30;;;21.10;63.80;;;;;;5124140;28;20057;-67
2022/05/12 06:43:04;;;;;;;14.68;4.38;;;21.10;64.40;;;;;;5123860;28;20054;-67
2022/05/12 06:45:36;;;;;;;;;;;21.10;64.50;;;;;;5126890;28;20077;-67
2022/05/12 06:48:09;;;;;;;7.65;3.75;;;21.00;63.40;;;;;;5115975;28;19926;-67
2022/05/12 06:50:42;;;;;;;4.97;3.47;;;21.00;63.40;;;;;;5124871;28;20062;-68
2022/05/12 06:53:14;;;;;;;18.33;12.70;;;21.00;63.60;;;;;;5124447;28;20047;-67
2022/05/12 06:55:47;;;;;;;10.98;3.67;;;21.10;63.50;;;;;;5126912;28;20057;-66
2022/05/12 06:58:19;;;;;;;10.70;4.53;;;21.10;63.30;;;;;;5124135;28;20513;-66
2022/05/12 07:00:51;;;;;;;9.35;4.05;;;21.20;63.50;;;;;;5125872;28;20093;-67
2022/05/12 07:03:24;;;;;;;7.05;3.88;;;21.20;63.50;;;;;;5115830;28;20035;-67
2022/05/12 07:05:57;;;;;;;8.50;4.15;;;21.40;62.80;;;;;;5125828;28;20043;-67
2022/05/12 07:08:30;;;;;;;8.82;4.32;;;21.60;62.30;;;;;;5117903;28;20599;-67
2022/05/12 07:11:02;;;;;;;8.05;3.75;;;21.80;62.20;;;;;;5124442;28;20046;-67
2022/05/12 07:13:35;;;;;;;7.72;3.75;;;21.90;61.80;;;;;;5124964;28;20043;-66
2022/05/12 07:16:08;;;;;;;11.53;4.27;;;22.00;61.70;;;;;;5116967;28;21121;-67
2022/05/12 07:18:41;;;;;;;8.85;3.75;;;22.00;61.60;;;;;;5127528;28;20298;-67
2022/05/12 07:26:56;;;;;;;14.10;4.15;;;21.80;62.00;;;;;;5126574;28;20043;-67
2022/05/12 07:29:29;;;;;;;11.10;4.00;;;21.80;62.00;;;;;;5116991;28;20050;-67
2022/05/12 07:32:01;;;;;;;11.75;4.13;;;21.90;62.10;;;;;;5125689;28;20484;-68
2022/05/12 07:34:34;;;;;;;12.77;3.83;;;22.10;60.80;;;;;;5123377;28;20070;-67
2022/05/12 07:37:07;;;;;;;9.60;4.05;;;22.30;60.90;;;;;;5123164;28;20067;-67
2022/05/12 07:39:39;;;;;;;9.53;3.93;;;22.50;61.00;;;;;;5127893;28;20058;-68
2022/05/12 07:42:12;;;;;;;5.65;3.67;;;22.80;60.60;;;;;;5126783;28;20054;-67
2022/05/12 07:44:44;;;;;;;6.15;4.03;;;22.90;58.90;;;;;;5124713;28;20058;-66
2022/05/12 07:47:17;;;;;;;15.43;3.97;;;23.00;59.10;;;;;;5128006;28;20419;-67
2022/05/12 07:49:49;;;;;;;8.60;3.50;;;23.10;58.50;;;;;;5125506;28;20038;-66
2022/05/12 07:52:22;;;;;;;7.40;4.15;;;23.30;58.50;;;;;;5125777;28;20047;-67
2022/05/12 07:54:55;;;;;;;8.32;4.30;;;23.40;58.30;;;;;;5126552;28;20066;-68
2022/05/12 07:57:27;;;;;;;13.55;3.90;;;23.70;58.20;;;;;;5127670;28;20054;-67
2022/05/12 08:00:00;;;;;;;6.90;4.20;;;23.80;57.50;;;;;;5126772;28;20070;-67
2022/05/12 08:02:43;;;;;;;8.60;4.47;;;23.70;56.90;;;;;;5119739;28;20047;-68
2022/05/12 08:05:15;;;;;;;12.38;4.30;;;23.50;57.60;;;;;;5127663;28;20043;-67
2022/05/12 08:07:48;;;;;;;5.22;3.83;;;23.50;57.60;;;;;;5125700;28;20066;-67
2022/05/12 08:10:21;;;;;;;11.23;4.18;;;23.60;58.00;;;;;;5124740;28;20051;-66
2022/05/12 08:12:54;;;;;;;6.03;3.95;;;23.50;57.60;;;;;;5125919;28;20055;-68
2022/05/12 08:15:30;;;;;;;16.02;4.18;;;23.50;58.00;;;;;;5136602;23;20062;-75
2022/05/12 08:18:02;;;;;;;6.47;4.18;;;23.50;58.20;;;;;;5125345;28;20055;-75
2022/05/12 08:20:35;;;;;;;11.48;3.97;;;23.70;58.30;;;;;;5126785;28;20058;-75
2022/05/12 08:23:07;;;;;;;9.10;4.57;;;23.80;58.30;;;;;;5118270;28;20043;-74
2022/05/12 08:25:42;;;;;;;8.68;3.88;;;23.80;58.20;;;;;;5127309;28;20051;-75
2022/05/12 08:28:20;;;;;;;8.75;4.07;;;24.00;59.10;;;;;;5124778;28;20066;-75
2022/05/12 08:30:53;;;;;;;8.18;4.10;;;24.10;58.40;;;;;;5097774;28;20058;-75
2022/05/12 08:33:25;;;;;;;8.02;4.43;;;24.00;58.20;;;;;;5114602;28;20055;-75
2022/05/12 08:35:58;;;;;;;12.65;4.28;;;24.00;58.60;;;;;;5109093;28;20047;-75
2022/05/12 08:38:31;;;;;;;7.90;4.05;;;24.00;58.50;;;;;;5115754;28;20487;-75
2022/05/12 08:41:04;;;;;;;10.15;3.97;;;23.90;58.80;;;;;;5121069;28;20047;-74
2022/05/12 08:43:51;;;;;;;9.02;4.55;;;24.00;58.60;;;;;;5116182;28;20053;-75
2022/05/12 08:46:32;;;;;;;8.18;4.32;;;24.10;58.40;;;;;;5117080;28;20051;-73
2022/05/12 08:49:19;;;;;;;7.43;4.40;;;24.10;59.30;;;;;;5127723;28;20046;-74
2022/05/12 08:52:14;;;;;;;9.32;5.00;;;24.20;59.40;;;;;;5114757;28;20051;-75
2022/05/12 08:54:54;;;;;;;9.07;4.85;;;24.20;58.80;;;;;;5122022;28;20047;-75
2022/05/12 08:57:46;;;;;;;10.15;4.53;;;24.20;59.20;;;;;;5117010;28;20420;-74
2022/05/12 09:00:19;;;;;;;11.13;5.20;;;24.30;57.90;;;;;;5117579;28;20059;-74
2022/05/12 09:02:59;;;;;;;12.00;4.63;;;24.20;58.30;;;;;;5115461;28;20222;-75
2022/05/12 09:05:37;;;;;;;8.90;4.65;;;24.30;59.50;;;;;;5120469;28;20051;-74
2022/05/12 09:08:31;;;;;;;11.30;4.60;;;24.40;58.80;;;;;;5118019;28;20042;-74
2022/05/12 09:11:18;;;;;;;14.65;5.05;;;24.40;58.00;;;;;;5122629;28;20050;-75
2022/05/12 09:13:53;;;;;;;9.10;5.00;;;24.50;58.20;;;;;;5122510;28;20051;-74
2022/05/12 09:16:29;;;;;;;11.77;5.03;;;24.50;57.60;;;;;;5127769;28;20043;-75
2022/05/12 09:19:02;;;;;;;11.95;4.72;;;24.40;57.90;;;;;;5127155;28;20132;-76
2022/05/12 09:21:36;;;;;;;8.82;4.93;;;24.40;58.40;;;;;;5134092;28;20065;-74
2022/05/12 09:24:08;;;;;;;16.65;4.97;;;24.40;57.80;;;;;;5122876;28;20486;-74
2022/05/12 09:26:51;;;;;;;9.67;4.83;;;24.30;57.50;;;;;;5124229;28;20051;-75
2022/05/12 09:29:28;;;;;;;11.00;4.93;;;24.40;58.20;;;;;;5125279;28;20411;-76
2022/05/12 09:32:03;;;;;;;16.95;5.22;;;24.40;58.00;;;;;;5118997;28;20038;-73
2022/05/12 09:34:43;;;;;;;6.90;4.65;;;24.30;58.50;;;;;;5125377;28;20058;-74
2022/05/12 09:37:24;;;;;;;12.73;5.05;;;24.40;58.20;;;;;;5134334;28;20062;-75
2022/05/12 09:40:12;;;;;;;11.25;4.93;;;24.50;58.60;;;;;;5124209;28;20062;-75
2022/05/12 09:42:48;;;;;;;9.93;4.90;;;24.40;57.90;;;;;;5125929;28;20043;-73
2022/05/12 09:45:36;;;;;;;8.40;5.00;;;24.40;58.20;;;;;;5125921;28;20059;-75
2022/05/12 09:48:28;;;;;;;8.70;4.75;;;24.50;58.60;;;;;;5125274;28;20414;-74
2022/05/12 09:51:22;;;;;;;12.55;4.57;;;24.60;59.50;;;;;;5120575;28;20134;-76
2022/05/12 09:54:12;;;;;;;11.45;4.90;;;24.70;59.10;;;;;;5124188;28;20061;-76
2022/05/12 09:57:00;;;;;;;7.40;4.70;;;24.80;57.20;;;;;;5126864;28;20054;-73
2022/05/12 09:59:33;;;;;;;7.70;4.50;;;24.90;57.40;;;;;;5117810;28;20526;-74
2022/05/12 10:08:27;;;;;;;11.38;4.28;;;25.30;55.50;;;;;;5110599;28;20043;-75
2022/05/12 10:11:03;;;;;;;9.65;4.20;;;25.50;56.60;;;;;;5117525;28;20124;-74
2022/05/12 10:13:48;;;;;;;11.90;4.95;;;25.60;55.00;;;;;;5130862;28;20395;-74
2022/05/12 10:16:27;;;;;;;10.23;4.28;;;25.70;53.20;;;;;;5130963;28;20510;-74
2022/05/12 10:19:05;;;;;;;10.35;4.72;;;25.80;53.30;;;;;;5121589;28;20042;-75
2022/05/12 10:21:43;;;;;;;8.63;4.07;;;25.90;53.00;;;;;;5117901;28;20050;-75
2022/05/12 10:24:33;;;;;;;7.97;4.38;;;25.90;53.20;;;;;;5115788;28;20043;-74
2022/05/12 10:27:13;;;;;;;13.02;3.85;;;26.20;52.70;;;;;;5112800;28;20043;-75
2022/05/12 10:30:13;;;;;;;9.63;4.68;;;26.40;51.70;;;;;;5113933;28;20268;-74
2022/05/12 10:33:16;;;;;;;6.20;3.88;;;26.50;51.60;;;;;;5113343;28;20047;-74
2022/05/12 10:36:15;;;;;;;8.80;4.15;;;26.60;51.90;;;;;;5120351;28;20464;-74
2022/05/12 10:39:03;;;;;;;7.30;4.05;;;26.80;51.50;;;;;;5120100;28;20078;-75
2022/05/12 10:41:43;;;;;;;8.90;4.28;;;26.80;50.80;;;;;;5114429;28;20964;-75
2022/05/12 10:44:30;;;;;;;12.90;3.70;;;26.70;51.80;;;;;;5095801;28;20051;-75
2022/05/12 10:47:19;;;;;;;7.68;4.53;;;26.90;51.30;;;;;;5112495;28;20054;-75
2022/05/12 10:50:07;;;;;;;12.35;3.63;;;27.20;50.90;;;;;;5109362;28;20915;-75
2022/05/12 10:53:31;;;;;;;13.80;4.35;;;27.20;49.40;;;;;;5112229;28;20363;-74
2022/05/12 10:56:12;;;;;;;11.68;4.07;;;27.30;49.20;;;;;;5109718;28;20058;-76
2022/05/12 10:59:01;;;;;;;6.40;3.78;;;27.70;50.20;;;;;;5113339;28;20500;-75
2022/05/12 11:01:40;;;;;;;8.95;3.88;;;27.80;49.60;;;;;;5110715;28;20487;-75
2022/05/12 11:04:21;;;;;;;11.55;3.80;;;28.20;48.90;;;;;;5114954;28;20323;-75
2022/05/12 11:07:05;;;;;;;4.38;3.70;;;28.40;48.90;;;;;;5110412;28;20054;-73
2022/05/12 11:09:46;;;;;;;9.60;3.53;;;28.50;47.20;;;;;;5111654;28;20066;-75
2022/05/12 11:12:34;;;;;;;10.25;3.92;;;28.40;47.90;;;;;;5112191;28;20844;-75
2022/05/12 11:15:15;;;;;;;8.15;3.65;;;28.60;46.90;;;;;;5108374;28;20055;-76
2022/05/12 11:18:05;;;;;;;9.75;3.80;;;28.70;47.20;;;;;;5111181;28;20537;-74
2022/05/12 11:20:48;;;;;;;10.38;4.40;;;29.10;46.90;;;;;;5115415;28;20043;-75
2022/05/12 11:23:32;;;;;;;8.55;4.20;;;29.10;47.10;;;;;;5112906;28;20054;-76
2022/05/12 11:26:15;;;;;;;12.32;4.30;;;29.20;47.70;;;;;;5119702;28;20065;-74
2022/05/12 11:32:01;;;;;;;17.38;4.50;;;29.10;48.00;;;;;;5119370;28;20434;-74
2022/05/12 11:34:36;;;;;;;13.98;4.32;;;29.30;46.90;;;;;;5119680;28;20482;-74
2022/05/12 11:37:49;;;;;;;6.63;4.45;;;29.70;46.90;;;;;;5117288;28;20047;-74
2022/05/12 11:40:49;;;;;;;10.80;4.95;;;29.70;46.30;;;;;;5112017;28;20541;-74
2022/05/12 11:46:53;;;;;;;8.60;4.40;;;29.70;46.20;;;;;;5123828;28;20664;-74
2022/05/12 11:50:04;;;;;;;8.30;4.63;;;29.80;46.50;;;;;;5121852;28;20504;-74
2022/05/12 11:53:16;;;;;;;5.95;4.22;;;29.90;45.70;;;;;;5122340;28;20126;-74
2022/05/12 11:56:07;;;;;;;6.93;4.40;;;29.90;45.00;;;;;;5117719;28;20043;-74
2022/05/12 11:58:43;;;;;;;5.43;4.07;;;29.70;45.80;;;;;;5104407;28;20055;-74
2022/05/12 12:01:21;;;;;;;7.18;4.72;;;29.50;46.40;;;;;;5116572;28;20110;-74
2022/05/12 12:03:56;;;;;;;7.95;4.00;;;29.80;46.60;;;;;;5109132;28;20058;-75
2022/05/12 12:06:42;;;;;;;8.60;4.68;;;30.10;46.50;;;;;;5141801;23;20050;-83
2022/05/12 12:09:48;;;;;;;8.50;4.22;;;30.40;44.90;;;;;;5130670;28;20054;-82
2022/05/12 12:12:39;;;;;;;8.50;4.40;;;30.20;45.60;;;;;;5140975;28;20042;-83
2022/05/12 12:15:24;;;;;;;12.23;6.15;;;30.30;46.80;;;;;;5152936;28;20057;-81
2022/05/12 12:17:57;;;;;;;6.57;4.40;;;30.90;45.40;;;;;;5143482;28;20370;-82
2022/05/12 12:20:31;;;;;;;22.80;4.32;;;31.20;45.20;;;;;;5152797;28;20053;-82
2022/05/12 12:23:22;;;;;;;;;;;31.10;44.20;;;;;;5154827;28;20049;-82
2022/05/12 12:26:09;;;;;;;11.65;4.18;;;30.70;43.50;;;;;;5134394;28;19925;-83
2022/05/12 12:29:08;;;;;;;13.48;4.28;;;31.00;45.00;;;;;;5151906;28;20060;-86
2022/05/12 12:31:48;;;;;;;6.57;4.25;;;31.10;44.30;;;;;;5150934;28;20510;-86
2022/05/12 12:34:43;;;;;;;8.25;3.70;;;30.90;43.40;;;;;;5165588;28;20487;-84
2022/05/12 12:37:47;;;;;;;10.98;4.50;;;30.90;43.40;;;;;;5148581;28;20279;-84
2022/05/12 12:40:34;;;;;;;7.00;4.13;;;30.80;43.00;;;;;;5148094;28;26339;-84
2022/05/12 12:43:26;;;;;;;15.48;4.07;;;30.80;44.70;;;;;;5139267;28;22299;-86
2022/05/12 12:46:09;;;;;;;7.88;4.00;;;31.30;43.90;;;;;;5148839;28;21933;-85
2022/05/12 12:48:51;;;;;;;;;;;31.20;43.10;;;;;;5147023;28;22239;-83
2022/05/12 12:51:33;;;;;;;9.73;3.72;;;31.00;43.20;;;;;;5165040;28;22134;-85
2022/05/12 12:57:41;;;;;;;11.40;4.28;;;31.20;42.50;;;;;;5141625;28;22313;-85
2022/05/12 13:00:24;;;;;;;4.65;3.97;;;31.20;42.80;;;;;;5152084;28;21336;-85
2022/05/12 13:03:03;;;;;;;9.77;3.80;;;31.60;43.00;;;;;;5134463;28;21685;-85
2022/05/12 13:05:37;;;;;;;10.00;4.00;;;31.40;43.30;;;;;;5151271;28;22619;-84
2022/05/12 13:08:20;;;;;;;;;;;31.60;44.00;;;;;;5148679;28;21773;-86
2022/05/12 13:10:58;;;;;;;10.63;4.13;;;31.70;42.90;;;;;;5148188;28;19929;-86
2022/05/12 13:13:31;;;;;;;8.68;4.13;;;31.70;41.90;;;;;;5160300;28;20053;-85
2022/05/12 13:16:04;;;;;;;8.35;4.43;;;30.90;43.10;;;;;;5152846;28;22255;-86
2022/05/12 13:18:46;;;;;;;7.72;4.20;;;31.00;44.20;;;;;;5146311;28;22688;-85
2022/05/12 13:21:23;;;;;;;10.00;4.40;;;31.30;44.20;;;;;;5139756;28;22166;-85
2022/05/12 13:24:23;;;;;;;11.48;4.30;;;31.40;42.50;;;;;;5121707;28;22615;-87
2022/05/12 13:27:02;;;;;;;11.93;4.72;;;31.50;42.20;;;;;;5133722;28;27634;-86
2022/05/12 13:29:38;;;;;;;10.27;4.18;;;31.00;42.00;;;;;;5144670;28;23823;-86
2022/05/12 13:32:32;;;;;;;18.92;4.28;;;31.10;43.40;;;;;;5146123;28;23592;-85
2022/05/12 13:35:26;;;;;;;13.77;4.18;;;31.10;42.00;;;;;;5160889;28;23714;-86
2022/05/12 13:38:10;;;;;;;3.92;3.58;;;31.10;43.50;;;;;;5145957;28;23436;-86
2022/05/12 13:40:52;;;;;;;10.13;4.00;;;31.30;42.00;;;;;;5146476;28;23795;-86
2022/05/12 13:43:45;;;;;;;7.15;3.75;;;31.00;42.20;;;;;;5150570;28;20042;-85
2022/05/12 13:46:18;;;;;;;;;;;31.20;41.30;;;;;;5156553;28;20053;-87
2022/05/12 13:49:05;;;;;;;9.80;4.20;;;31.20;40.70;;;;;;5133178;28;19929;-82
2022/05/12 13:51:48;;;;;;;12.27;4.95;;;31.10;41.40;;;;;;5124514;28;23674;-81
2022/05/12 13:54:59;;;;;;;8.25;3.63;;;31.30;42.50;;;;;;5154747;28;24432;-82
2022/05/12 13:57:42;;;;;;;7.00;4.30;;;31.70;42.20;;;;;;5150337;28;24761;-83
2022/05/12 14:00:39;;;;;;;6.70;4.30;;;31.80;41.40;;;;;;5158027;28;24016;-82
2022/05/12 14:03:30;;;;;;;9.93;4.20;;;31.70;41.50;;;;;;5126913;28;23565;-83
2022/05/12 14:06:31;;;;;;;11.70;4.22;;;31.70;41.10;;;;;;5130239;28;23370;-82
2022/05/12 14:09:06;;;;;;;9.25;4.18;;;32.10;42.70;;;;;;5137320;28;23509;-82
2022/05/12 14:11:39;;;;;;;6.05;4.10;;;32.10;40.90;;;;;;5147753;28;24284;-84